ELVIS1 weather

Elvis1 Field
Griffithville, Arkansas, United States

Public forecast

Using degrees Fahrenheit for public forecast. Weather courtesy of forecast.io.

Closest aviation weather report (METAR) to Elvis1 Field

Closest report is Searcy Municipal Airport, 4.4 nm (8.2 km) W. Retrieved 2020/01/19 03:56 UTC (7 minutes ago):

KSRC 190356Z AUTO 34005KT 10SM CLR 03/M07 A3040 RMK AO2 SLP299 T00281067

Closest aviation forecast (TAF) to Elvis1 Field

Closest forecast is Little Rock Air Force Base, 30.6 nm (56.6 km) SW. Retrieved 2020-01-19 23:09 UTC (0 seconds ago):

TAF TAF KLRF 182303Z 1823/2005 32010G15KT 9999 SKC 520019 520919 QNH3020INS BECMG 1900/1901 32009KT 9999 SKC 520019 520919 QNH3024INS BECMG 1912/1913 35009KT 9999 SCT160 520109 QNH3040INS BECMG 1915/1916 35012G20KT 9999 SCT200 520209 QNH3042INS BECMG 1922/1923 01009KT 9999 SKC QNH3045INS TX16/1923Z TNM04/1911Z